Terminal Aerodrome Forecast
Issued by NWS Billings, MT

Home | Current Version | Previous Version | Text Only | Print | Product List | Glossary On
Versions: 1 2 3 4 5 6 7 8 9 10 11 12 13 14 15 16 17 18 19 20
000
FTUS45 KBYZ 230521
TAFSHR
TAF
KSHR 230521Z 2306/2406 VRB06KT 3SM -SN SCT007 OVC015
     FM231200 01011KT 1 1/2SM -SN BR SCT004 BKN007 OVC012
     FM231500 01011KT 1/2SM SN FG BKN004 BKN007 OVC012
     FM240200 VRB06KT 3SM -SN BR SCT007 OVC015=

USA.gov is the U.S. government's official web portal to all federal, state and local government web resources and services.